createdAt,value
2023-05-10T00:00:37.453Z,46.26
2023-05-10T00:01:37.487Z,46.29
2023-05-10T00:02:37.622Z,46.33
2023-05-10T00:03:37.720Z,46.29
2023-05-10T00:04:37.760Z,46.29
2023-05-10T00:05:37.692Z,46.35
2023-05-10T00:06:37.769Z,46.37
2023-05-10T00:07:37.786Z,46.35
2023-05-10T00:08:37.977Z,46.36
2023-05-10T00:09:37.881Z,46.33
2023-05-10T00:10:37.999Z,46.40
2023-05-10T00:11:37.992Z,46.38
2023-05-10T00:12:38.027Z,46.41
2023-05-10T00:13:38.366Z,46.37
2023-05-10T00:14:38.124Z,46.41
2023-05-10T00:15:38.206Z,46.43
2023-05-10T00:16:38.313Z,46.43
2023-05-10T00:17:38.317Z,46.42
2023-05-10T00:18:38.397Z,46.41
2023-05-10T00:19:38.358Z,46.40
2023-05-10T00:20:38.416Z,46.46
2023-05-10T00:21:38.438Z,46.45
2023-05-10T00:22:38.535Z,46.47
2023-05-10T00:23:38.566Z,46.50
2023-05-10T00:24:38.661Z,46.50
2023-05-10T00:25:38.710Z,46.51
2023-05-10T00:26:38.775Z,46.51
2023-05-10T00:27:38.802Z,46.52
2023-05-10T00:28:38.885Z,46.52
2023-05-10T00:29:38.895Z,46.55
2023-05-10T00:30:38.948Z,46.53
2023-05-10T00:31:39.033Z,46.54
2023-05-10T00:32:39.104Z,46.58
2023-05-10T00:33:39.118Z,46.54
2023-05-10T00:34:39.166Z,46.60
2023-05-10T00:35:39.191Z,46.61
2023-05-10T00:36:39.292Z,46.59
2023-05-10T00:37:39.305Z,46.56
2023-05-10T00:38:39.403Z,46.58
2023-05-10T00:39:39.423Z,46.63
2023-05-10T00:40:39.472Z,46.60
2023-05-10T00:41:39.512Z,46.64
2023-05-10T00:42:39.571Z,46.67
2023-05-10T00:43:39.892Z,46.65
2023-05-10T00:44:39.707Z,46.63
2023-05-10T00:45:39.734Z,46.67
2023-05-10T00:46:39.805Z,46.64
2023-05-10T00:47:39.868Z,46.65
2023-05-10T00:48:39.907Z,46.67
2023-05-10T00:49:39.960Z,46.70
2023-05-10T00:50:40.021Z,46.67
2023-05-10T00:51:40.068Z,46.67
2023-05-10T00:52:40.130Z,46.69
2023-05-10T00:53:40.164Z,46.71
2023-05-10T00:54:40.195Z,46.72
2023-05-10T00:55:40.267Z,46.74
2023-05-10T00:56:40.298Z,46.75
2023-05-10T00:57:40.357Z,46.76
2023-05-10T00:58:40.434Z,46.74
2023-05-10T00:59:40.484Z,46.76
2023-05-10T01:00:40.499Z,46.76
2023-05-10T01:01:40.575Z,46.78
2023-05-10T01:02:40.682Z,46.78
2023-05-10T01:03:41.014Z,46.79
2023-05-10T01:04:40.731Z,46.81
2023-05-10T01:05:40.747Z,46.80
2023-05-10T01:06:40.800Z,46.82
2023-05-10T01:07:40.857Z,46.81
2023-05-10T01:08:40.898Z,46.83
2023-05-10T01:09:40.932Z,46.82
2023-05-10T01:10:40.984Z,46.84
2023-05-10T01:11:41.031Z,46.86
2023-05-10T01:12:41.119Z,46.86
2023-05-10T01:13:41.145Z,46.88
2023-05-10T01:14:41.152Z,46.90
2023-05-10T01:15:41.241Z,46.87
2023-05-10T01:16:41.255Z,46.85
2023-05-10T01:17:41.395Z,46.89
2023-05-10T01:18:41.351Z,46.93
2023-05-10T01:19:41.413Z,46.90
2023-05-10T01:20:41.444Z,46.92
2023-05-10T01:21:41.491Z,46.95
2023-05-10T01:22:41.562Z,46.93
2023-05-10T01:23:41.902Z,46.89
2023-05-10T01:24:41.685Z,46.95
2023-05-10T01:25:41.739Z,46.93
2023-05-10T01:26:41.779Z,46.95
2023-05-10T01:27:41.847Z,46.97
2023-05-10T01:28:41.927Z,46.95
2023-05-10T01:29:41.920Z,46.95
2023-05-10T01:30:41.979Z,46.94
2023-05-10T01:31:42.036Z,46.94
2023-05-10T01:32:42.141Z,46.97
2023-05-10T01:33:42.411Z,46.92
2023-05-10T01:34:42.166Z,46.94
2023-05-10T01:35:42.232Z,46.95
2023-05-10T01:36:42.296Z,46.94
2023-05-10T01:37:42.342Z,46.96
2023-05-10T01:38:42.384Z,46.95
2023-05-10T01:39:42.436Z,46.96
2023-05-10T01:40:42.465Z,46.99
2023-05-10T01:41:42.528Z,47.00
2023-05-10T01:42:42.591Z,46.99
2023-05-10T01:43:42.602Z,46.99
2023-05-10T01:44:42.688Z,47.02
2023-05-10T01:45:42.704Z,46.98
2023-05-10T01:46:42.825Z,46.99
2023-05-10T01:47:42.874Z,47.01
2023-05-10T01:48:42.882Z,46.99
2023-05-10T01:49:42.917Z,47.02
2023-05-10T01:50:42.949Z,46.99
2023-05-10T01:51:43.003Z,46.98
2023-05-10T01:52:43.060Z,47.01
2023-05-10T01:53:43.107Z,47.03
2023-05-10T01:54:43.163Z,47.05
2023-05-10T01:55:43.184Z,47.05
2023-05-10T01:56:43.263Z,47.05
2023-05-10T01:57:43.274Z,47.05
2023-05-10T01:58:43.362Z,47.09
2023-05-10T01:59:43.379Z,47.04
2023-05-10T02:00:43.472Z,47.07
2023-05-10T02:01:43.513Z,47.11
2023-05-10T02:02:43.639Z,47.08
2023-05-10T02:03:43.625Z,47.10
2023-05-10T02:04:43.669Z,47.09
2023-05-10T02:05:43.668Z,47.14
2023-05-10T02:06:43.751Z,47.16
2023-05-10T02:07:43.803Z,47.14
2023-05-10T02:08:43.823Z,47.10
2023-05-10T02:09:43.886Z,47.08
2023-05-10T02:10:43.948Z,47.12
2023-05-10T02:11:43.936Z,47.12
2023-05-10T02:12:44.038Z,47.14
2023-05-10T02:13:44.413Z,47.13
2023-05-10T02:14:44.073Z,47.14
2023-05-10T02:15:44.120Z,47.22
2023-05-10T02:16:44.206Z,47.16
2023-05-10T02:17:44.239Z,47.19
2023-05-10T02:18:44.281Z,47.18
2023-05-10T02:19:44.337Z,47.18
2023-05-10T02:20:44.355Z,47.16
2023-05-10T02:21:44.409Z,47.18
2023-05-10T02:22:44.426Z,47.24
2023-05-10T02:23:44.491Z,47.21
2023-05-10T02:24:44.518Z,47.21
2023-05-10T02:25:44.589Z,47.24
2023-05-10T02:26:44.600Z,47.27
2023-05-10T02:27:44.683Z,47.24
2023-05-10T02:28:44.694Z,47.22
2023-05-10T02:29:44.793Z,47.24
2023-05-10T02:30:44.788Z,47.25
2023-05-10T02:31:44.868Z,47.24
2023-05-10T02:32:44.905Z,47.23
2023-05-10T02:33:44.912Z,47.22
2023-05-10T02:34:44.949Z,47.25
2023-05-10T02:35:45.015Z,47.25
2023-05-10T02:36:45.063Z,47.22
2023-05-10T02:37:45.103Z,47.26
2023-05-10T02:38:45.110Z,47.29
2023-05-10T02:39:45.154Z,47.27
2023-05-10T02:40:45.225Z,47.26
2023-05-10T02:41:45.251Z,47.28
2023-05-10T02:42:45.285Z,47.27
2023-05-10T02:43:45.403Z,47.26
2023-05-10T02:44:45.931Z,47.28
2023-05-10T02:45:45.496Z,47.30
2023-05-10T02:46:45.454Z,47.36
2023-05-10T02:47:45.607Z,47.31
2023-05-10T02:48:45.555Z,47.35
2023-05-10T02:49:45.583Z,47.31
2023-05-10T02:50:45.653Z,47.32
2023-05-10T02:51:45.705Z,47.32
2023-05-10T02:52:45.746Z,47.34
2023-05-10T02:53:45.774Z,47.33
2023-05-10T02:54:45.825Z,47.31
2023-05-10T02:55:45.858Z,47.32
2023-05-10T02:56:45.936Z,47.38
2023-05-10T02:57:45.969Z,47.35
2023-05-10T02:58:45.976Z,47.35
2023-05-10T02:59:46.075Z,47.39
2023-05-10T03:00:46.069Z,47.39
2023-05-10T03:01:46.207Z,47.40
2023-05-10T03:02:46.191Z,47.38
2023-05-10T03:03:46.432Z,47.41
2023-05-10T03:04:46.260Z,47.39
2023-05-10T03:05:46.239Z,47.42
2023-05-10T03:06:46.297Z,47.43
2023-05-10T03:07:46.320Z,47.43
2023-05-10T03:08:46.361Z,47.42
2023-05-10T03:09:46.373Z,47.40
2023-05-10T03:10:46.427Z,47.38
2023-05-10T03:11:46.485Z,47.44
2023-05-10T03:12:46.546Z,47.46
2023-05-10T03:13:46.580Z,47.43
2023-05-10T03:14:46.567Z,47.45
2023-05-10T03:15:46.654Z,47.46
2023-05-10T03:16:46.661Z,47.45
2023-05-10T03:17:46.724Z,47.46
2023-05-10T03:18:46.736Z,47.46
2023-05-10T03:19:46.779Z,47.46
2023-05-10T03:20:46.809Z,47.44
2023-05-10T03:21:46.846Z,47.46
2023-05-10T03:22:46.853Z,47.45
2023-05-10T03:23:46.876Z,47.45
2023-05-10T03:24:46.909Z,47.49
2023-05-10T03:25:46.946Z,47.47
2023-05-10T03:26:46.998Z,47.46
2023-05-10T03:27:47.018Z,47.47
2023-05-10T03:28:47.044Z,47.47
2023-05-10T03:29:47.079Z,47.46
2023-05-10T03:30:47.138Z,47.47
2023-05-10T03:31:47.239Z,47.47
2023-05-10T03:32:47.203Z,47.51
2023-05-10T03:33:47.494Z,47.47
2023-05-10T03:34:47.291Z,47.49
2023-05-10T03:35:47.336Z,47.44
2023-05-10T03:36:47.310Z,47.47
2023-05-10T03:37:47.329Z,47.47
2023-05-10T03:38:47.462Z,47.49
2023-05-10T03:39:47.378Z,47.51
2023-05-10T03:40:47.385Z,47.49
2023-05-10T03:41:47.450Z,47.51
2023-05-10T03:42:47.458Z,47.53
2023-05-10T03:43:47.503Z,47.49
2023-05-10T03:44:47.509Z,47.51
2023-05-10T03:45:47.524Z,47.48
2023-05-10T03:46:47.708Z,47.51
2023-05-10T03:47:47.620Z,47.51
2023-05-10T03:48:47.650Z,47.50
2023-05-10T03:49:47.646Z,47.56
2023-05-10T03:50:47.729Z,47.53
2023-05-10T03:51:47.731Z,47.52
2023-05-10T03:52:47.734Z,47.55
2023-05-10T03:53:47.772Z,47.54
2023-05-10T03:54:47.819Z,47.55
2023-05-10T03:55:47.806Z,47.55
2023-05-10T03:56:47.881Z,47.57
2023-05-10T03:57:47.913Z,47.59
2023-05-10T03:58:47.923Z,47.58
2023-05-10T03:59:47.953Z,47.56
2023-05-10T04:00:47.987Z,47.56
2023-05-10T04:01:48.039Z,47.56
2023-05-10T04:02:48.056Z,47.53
2023-05-10T04:03:48.177Z,47.55
2023-05-10T04:04:48.074Z,47.58
2023-05-10T04:05:48.128Z,47.55
2023-05-10T04:06:48.221Z,47.57
2023-05-10T04:07:48.217Z,47.60
2023-05-10T04:08:48.491Z,47.61
2023-05-10T04:09:48.256Z,47.61
2023-05-10T04:10:48.256Z,47.62
2023-05-10T04:11:48.280Z,47.59
2023-05-10T04:12:48.352Z,47.60
2023-05-10T04:13:48.358Z,47.61
2023-05-10T04:14:48.384Z,47.54
2023-05-10T04:15:48.348Z,47.56
2023-05-10T04:16:48.502Z,47.56
2023-05-10T04:17:48.467Z,47.54
2023-05-10T04:18:48.512Z,47.57
2023-05-10T04:19:48.535Z,47.58
2023-05-10T04:20:48.574Z,47.58
2023-05-10T04:21:48.575Z,47.53
2023-05-10T04:22:48.737Z,47.58
2023-05-10T04:23:48.662Z,47.56
2023-05-10T04:24:48.666Z,47.59
2023-05-10T04:25:48.680Z,47.59
2023-05-10T04:26:48.676Z,47.56
2023-05-10T04:27:48.730Z,47.57
2023-05-10T04:28:48.740Z,47.55
2023-05-10T04:29:48.794Z,47.58
2023-05-10T04:30:48.854Z,47.56
2023-05-10T04:31:48.817Z,47.57
2023-05-10T04:32:48.838Z,47.61
2023-05-10T04:33:48.872Z,47.58
2023-05-10T04:34:48.875Z,47.58
2023-05-10T04:35:48.875Z,47.60
2023-05-10T04:36:48.922Z,47.59
2023-05-10T04:37:48.930Z,47.55
2023-05-10T04:38:48.962Z,47.59
2023-05-10T04:39:48.932Z,47.60
2023-05-10T04:40:48.983Z,47.58
2023-05-10T04:41:48.979Z,47.59
2023-05-10T04:42:49.015Z,47.60
2023-05-10T04:43:49.042Z,47.59
2023-05-10T04:44:49.053Z,47.58
2023-05-10T04:45:49.056Z,47.60
2023-05-10T04:46:49.103Z,47.56
2023-05-10T04:47:49.177Z,47.59
2023-05-10T04:48:49.119Z,47.58
2023-05-10T04:49:49.129Z,47.59
2023-05-10T04:50:49.140Z,47.58
2023-05-10T04:51:49.152Z,47.60
2023-05-10T04:52:49.170Z,47.61
2023-05-10T04:53:57.802Z,47.62
2023-05-10T04:54:50.165Z,47.63
2023-05-10T04:55:49.170Z,47.63
2023-05-10T04:56:49.191Z,47.66
2023-05-10T04:57:49.143Z,47.64
2023-05-10T04:58:49.168Z,47.64
2023-05-10T04:59:50.343Z,47.63
2023-05-10T05:00:49.137Z,47.66
2023-05-10T05:01:49.188Z,47.69
2023-05-10T05:02:49.333Z,47.60
2023-05-10T05:03:49.207Z,47.60
2023-05-10T05:04:49.151Z,47.61
2023-05-10T05:05:49.113Z,48.50
2023-05-10T05:06:49.429Z,50.07
2023-05-10T05:07:49.117Z,49.54
2023-05-10T05:08:49.111Z,49.39
2023-05-10T05:09:49.475Z,49.21
2023-05-10T05:10:49.136Z,49.51
2023-05-10T05:11:49.125Z,48.99
2023-05-10T05:12:49.186Z,49.84
2023-05-10T05:13:49.169Z,49.03
2023-05-10T05:14:49.486Z,49.12
2023-05-10T05:15:49.220Z,49.06
2023-05-10T05:16:49.232Z,48.89
2023-05-10T05:17:49.251Z,48.77
2023-05-10T05:18:49.330Z,48.70
2023-05-10T05:19:49.257Z,48.67
2023-05-10T05:20:49.286Z,48.55
2023-05-10T05:21:49.295Z,48.59
2023-05-10T05:22:49.316Z,48.56
2023-05-10T05:23:49.329Z,48.57
2023-05-10T05:24:49.386Z,48.51
2023-05-10T05:25:49.380Z,48.51
2023-05-10T05:26:49.420Z,48.47
2023-05-10T05:27:49.464Z,48.46
2023-05-10T05:28:49.514Z,48.45
2023-05-10T05:29:50.038Z,48.44
2023-05-10T05:30:49.583Z,48.35
2023-05-10T05:31:49.643Z,48.39
2023-05-10T05:32:49.664Z,48.38
2023-05-10T05:33:49.641Z,48.34
2023-05-10T05:34:50.012Z,48.38
2023-05-10T05:35:49.764Z,48.60
2023-05-10T05:36:49.766Z,48.59
2023-05-10T05:37:49.728Z,48.67
2023-05-10T05:38:49.778Z,48.64
2023-05-10T05:39:49.794Z,48.69
2023-05-10T05:40:49.890Z,48.67
2023-05-10T05:41:49.849Z,48.60
2023-05-10T05:42:49.929Z,48.59
2023-05-10T05:43:49.925Z,48.51
2023-05-10T05:44:50.029Z,48.48
2023-05-10T05:45:50.035Z,48.50
2023-05-10T05:46:50.038Z,48.68
2023-05-10T05:47:50.075Z,49.33
2023-05-10T05:48:50.093Z,49.48
2023-05-10T05:49:50.536Z,49.88
2023-05-10T05:50:50.127Z,49.74
2023-05-10T05:51:50.181Z,49.99
2023-05-10T05:52:50.150Z,49.89
2023-05-10T05:53:50.193Z,49.93
2023-05-10T05:54:50.507Z,49.96
2023-05-10T05:55:50.273Z,49.91
2023-05-10T05:56:50.264Z,49.89
2023-05-10T05:57:50.323Z,49.99
2023-05-10T05:58:50.387Z,49.91
2023-05-10T05:59:50.440Z,49.94
2023-05-10T06:00:50.581Z,49.91
2023-05-10T06:01:50.520Z,49.88
2023-05-10T06:02:50.576Z,49.81
2023-05-10T06:03:51.932Z,49.85
2023-05-10T06:04:51.026Z,49.78
2023-05-10T06:05:50.594Z,49.76
2023-05-10T06:06:50.516Z,49.68
2023-05-10T06:07:50.516Z,49.67
2023-05-10T06:08:50.518Z,49.64
2023-05-10T06:09:50.499Z,49.67
2023-05-10T06:10:50.529Z,49.60
2023-05-10T06:11:50.482Z,49.59
2023-05-10T06:12:50.589Z,49.63
2023-05-10T06:13:50.464Z,49.63
2023-05-10T06:14:50.539Z,49.66
2023-05-10T06:15:50.434Z,49.62
2023-05-10T06:16:50.501Z,49.61
2023-05-10T06:17:50.502Z,49.59
2023-05-10T06:18:50.413Z,49.53
2023-05-10T06:19:50.469Z,49.71
2023-05-10T06:20:50.429Z,49.66
2023-05-10T06:21:53.107Z,49.72
2023-05-10T06:22:50.424Z,49.65
2023-05-10T06:23:50.400Z,49.59
2023-05-10T06:24:50.506Z,49.64
2023-05-10T06:25:50.412Z,49.60
2023-05-10T06:26:50.389Z,49.56
2023-05-10T06:27:53.607Z,49.55
2023-05-10T06:28:50.439Z,49.63
2023-05-10T06:29:54.263Z,49.60
2023-05-10T06:30:51.366Z,49.61
2023-05-10T06:31:50.486Z,49.56
2023-05-10T06:32:50.423Z,49.55
2023-05-10T06:33:50.434Z,49.51
2023-05-10T06:34:50.525Z,49.53
2023-05-10T06:35:50.368Z,49.49
2023-05-10T06:36:50.314Z,49.51
2023-05-10T06:37:50.367Z,49.55
2023-05-10T06:38:50.399Z,49.50
2023-05-10T06:39:50.409Z,49.46
2023-05-10T06:40:50.418Z,49.50
2023-05-10T06:41:50.445Z,49.51
2023-05-10T06:42:50.496Z,49.48
2023-05-10T06:43:50.539Z,49.44
2023-05-10T06:44:50.610Z,49.43
2023-05-10T06:45:50.610Z,49.34
2023-05-10T06:46:50.801Z,49.37
2023-05-10T06:47:50.697Z,49.39
2023-05-10T06:48:50.691Z,49.40
2023-05-10T06:49:50.813Z,49.47
2023-05-10T06:50:50.767Z,49.43
2023-05-10T06:51:50.794Z,49.39
2023-05-10T06:52:52.983Z,49.39
2023-05-10T06:53:50.938Z,49.38
2023-05-10T06:54:51.033Z,49.61
2023-05-10T06:55:50.871Z,49.70
2023-05-10T06:56:50.881Z,49.70
2023-05-10T06:57:50.909Z,49.90
2023-05-10T06:58:51.223Z,49.95
2023-05-10T06:59:50.993Z,50.14
2023-05-10T07:00:51.038Z,50.21
2023-05-10T07:01:51.035Z,50.18
2023-05-10T07:02:51.095Z,50.25
2023-05-10T07:03:51.145Z,50.36
2023-05-10T07:04:51.170Z,50.40
2023-05-10T07:05:51.177Z,50.45
2023-05-10T07:06:51.208Z,50.47
2023-05-10T07:07:51.244Z,50.63
2023-05-10T07:08:51.250Z,50.68
2023-05-10T07:09:51.331Z,50.71
2023-05-10T07:10:51.334Z,50.65
2023-05-10T07:11:51.356Z,50.67
2023-05-10T07:12:51.384Z,50.59
2023-05-10T07:13:51.363Z,50.65
2023-05-10T07:14:51.565Z,50.62
2023-05-10T07:15:51.400Z,50.70
2023-05-10T07:16:51.391Z,50.73
2023-05-10T07:17:51.525Z,50.72
2023-05-10T07:18:51.471Z,50.60
2023-05-10T07:19:51.506Z,50.79
2023-05-10T07:20:51.582Z,50.80
2023-05-10T07:21:51.577Z,50.88
2023-05-10T07:22:51.626Z,50.73
2023-05-10T07:23:51.688Z,50.86
2023-05-10T07:24:52.012Z,50.83
2023-05-10T07:25:51.757Z,50.89
2023-05-10T07:26:51.804Z,50.86
2023-05-10T07:27:51.880Z,50.87
2023-05-10T07:28:51.925Z,50.91
2023-05-10T07:29:51.997Z,50.91
2023-05-10T07:30:52.050Z,50.82
2023-05-10T07:31:52.061Z,50.98
2023-05-10T07:32:52.060Z,51.08
2023-05-10T07:33:52.103Z,51.06
2023-05-10T07:34:52.184Z,51.33
2023-05-10T07:35:52.174Z,51.27
2023-05-10T07:36:52.228Z,51.15
2023-05-10T07:37:52.244Z,51.11
2023-05-10T07:38:52.302Z,51.31
2023-05-10T07:39:52.324Z,51.31
2023-05-10T07:40:52.365Z,51.38
2023-05-10T07:41:52.419Z,51.35
2023-05-10T07:42:52.418Z,51.37
2023-05-10T07:43:52.468Z,51.40
2023-05-10T07:44:52.549Z,51.39
2023-05-10T07:45:55.378Z,51.58
2023-05-10T07:46:52.518Z,50.96
2023-05-10T07:47:52.615Z,49.36
2023-05-10T07:48:52.584Z,48.67
2023-05-10T07:49:52.538Z,48.58
2023-05-10T07:50:52.504Z,48.94
2023-05-10T07:51:52.476Z,49.57
2023-05-10T07:52:52.444Z,48.86
2023-05-10T07:53:52.447Z,48.69
2023-05-10T07:54:52.457Z,48.78
2023-05-10T07:55:52.427Z,49.11
2023-05-10T07:56:52.442Z,48.96
2023-05-10T07:57:52.463Z,48.88
2023-05-10T07:58:52.438Z,48.67
2023-05-10T07:59:52.567Z,49.41
2023-05-10T08:00:52.406Z,49.98
2023-05-10T08:01:52.405Z,50.27
2023-05-10T08:02:52.514Z,50.56
2023-05-10T08:03:52.530Z,50.52
2023-05-10T08:04:52.588Z,50.62
2023-05-10T08:05:52.428Z,50.81
2023-05-10T08:06:52.366Z,50.85
2023-05-10T08:07:52.334Z,50.85
2023-05-10T08:08:52.335Z,50.91
2023-05-10T08:09:52.563Z,50.92
2023-05-10T08:10:52.301Z,51.15
2023-05-10T08:11:52.376Z,51.12
2023-05-10T08:12:52.300Z,51.00
2023-05-10T08:13:52.338Z,51.13
2023-05-10T08:14:52.551Z,51.07
2023-05-10T08:15:52.352Z,51.23
2023-05-10T08:16:52.315Z,51.20
2023-05-10T08:17:52.345Z,51.20
2023-05-10T08:18:52.313Z,51.31
2023-05-10T08:19:52.551Z,51.32
2023-05-10T08:20:52.296Z,51.43
2023-05-10T08:21:52.288Z,51.33
2023-05-10T08:22:52.286Z,51.44
2023-05-10T08:23:52.262Z,51.62
2023-05-10T08:24:52.577Z,51.57
2023-05-10T08:25:52.205Z,51.70
2023-05-10T08:26:52.257Z,51.52
2023-05-10T08:27:52.324Z,51.64
2023-05-10T08:28:52.318Z,51.66
2023-05-10T08:29:52.610Z,51.80
2023-05-10T08:30:52.406Z,51.70
2023-05-10T08:31:52.520Z,51.78
2023-05-10T08:32:52.463Z,51.97
2023-05-10T08:33:52.498Z,51.86
2023-05-10T08:34:52.558Z,51.94
2023-05-10T08:35:52.543Z,52.02
2023-05-10T08:36:52.551Z,51.88
2023-05-10T08:37:52.605Z,52.11
2023-05-10T08:38:52.602Z,52.81
2023-05-10T08:39:53.098Z,52.82
2023-05-10T08:40:52.701Z,52.66
2023-05-10T08:41:52.660Z,53.24
2023-05-10T08:42:52.730Z,53.15
2023-05-10T08:43:52.730Z,52.62
2023-05-10T08:44:52.757Z,50.98
2023-05-10T08:45:52.843Z,52.39
2023-05-10T08:46:52.900Z,50.21
2023-05-10T08:47:52.891Z,48.48
2023-05-10T08:48:52.875Z,48.51
2023-05-10T08:49:53.059Z,49.12
2023-05-10T08:50:52.917Z,51.03
2023-05-10T08:51:52.940Z,51.44
2023-05-10T08:52:52.979Z,51.25
2023-05-10T08:53:52.992Z,52.24
2023-05-10T08:54:53.085Z,52.17
2023-05-10T08:55:53.073Z,52.60
2023-05-10T08:56:53.102Z,51.90
2023-05-10T08:57:53.148Z,51.75
2023-05-10T08:58:53.167Z,51.61
2023-05-10T08:59:53.565Z,51.16
2023-05-10T09:00:53.192Z,51.06
2023-05-10T09:01:53.228Z,50.99
2023-05-10T09:02:53.291Z,50.80
2023-05-10T09:03:53.281Z,50.63
2023-05-10T09:04:53.377Z,50.55
2023-05-10T09:05:53.320Z,50.40
2023-05-10T09:06:53.298Z,50.28
2023-05-10T09:07:53.300Z,50.19
2023-05-10T09:08:53.352Z,50.13
2023-05-10T09:09:53.356Z,50.05
2023-05-10T09:10:53.596Z,50.00
2023-05-10T09:11:53.424Z,49.91
2023-05-10T09:12:53.404Z,49.83
2023-05-10T09:13:53.471Z,49.76
2023-05-10T09:14:53.492Z,49.74
2023-05-10T09:15:53.565Z,49.64
2023-05-10T09:16:53.535Z,49.57
2023-05-10T09:17:53.621Z,49.42
2023-05-10T09:18:53.592Z,49.42
2023-05-10T09:19:53.619Z,49.45
2023-05-10T09:20:53.665Z,49.41
2023-05-10T09:21:53.644Z,49.31
2023-05-10T09:22:53.690Z,49.24
2023-05-10T09:23:53.730Z,49.29
2023-05-10T09:24:53.772Z,49.20
2023-05-10T09:25:53.808Z,49.20
2023-05-10T09:26:53.818Z,49.19
2023-05-10T09:27:53.882Z,49.20
2023-05-10T09:28:53.940Z,49.19
2023-05-10T09:29:53.938Z,49.21
2023-05-10T09:30:54.015Z,49.20
2023-05-10T09:31:54.056Z,49.17
2023-05-10T09:32:55.050Z,49.21
2023-05-10T09:33:53.997Z,49.19
2023-05-10T09:34:54.024Z,49.26
2023-05-10T09:35:54.095Z,49.29
2023-05-10T09:36:53.978Z,49.27
2023-05-10T09:37:54.002Z,49.27
2023-05-10T09:38:53.991Z,49.28
2023-05-10T09:39:53.974Z,49.31
2023-05-10T09:40:54.083Z,49.28
2023-05-10T09:41:53.942Z,49.28
2023-05-10T09:42:53.971Z,49.27
2023-05-10T09:43:54.003Z,49.28
2023-05-10T09:44:54.056Z,49.30
2023-05-10T09:45:54.637Z,49.33
2023-05-10T09:46:54.173Z,49.33
2023-05-10T09:47:54.327Z,49.33
2023-05-10T09:48:54.293Z,49.34
2023-05-10T09:49:54.351Z,49.28
2023-05-10T09:50:54.635Z,49.33
2023-05-10T09:51:54.416Z,49.34
2023-05-10T09:52:54.465Z,49.38
2023-05-10T09:53:54.512Z,49.40
2023-05-10T09:54:55.470Z,49.36
2023-05-10T09:55:54.488Z,49.40
2023-05-10T09:56:54.488Z,49.37
2023-05-10T09:57:54.490Z,49.35
2023-05-10T09:58:54.451Z,49.33
2023-05-10T09:59:54.473Z,49.34
2023-05-10T10:00:54.478Z,49.32
2023-05-10T10:01:54.575Z,49.41
2023-05-10T10:02:54.447Z,49.47
2023-05-10T10:03:54.432Z,49.47
2023-05-10T10:04:54.480Z,49.41
2023-05-10T10:05:54.467Z,49.41
2023-05-10T10:06:54.525Z,49.41
2023-05-10T10:07:54.552Z,49.40
2023-05-10T10:08:56.696Z,49.30
2023-05-10T10:09:54.626Z,49.19
2023-05-10T10:10:55.087Z,49.13
2023-05-10T10:11:54.725Z,49.06
2023-05-10T10:12:54.735Z,48.97
2023-05-10T10:13:54.717Z,48.82
2023-05-10T10:14:54.794Z,48.77
2023-05-10T10:15:54.824Z,48.72
2023-05-10T10:17:06.407Z,48.62
2023-05-10T10:17:55.888Z,48.52
2023-05-10T10:18:54.894Z,48.45
2023-05-10T10:19:54.849Z,48.46
2023-05-10T10:20:54.832Z,48.44
2023-05-10T10:21:54.809Z,48.41
2023-05-10T10:22:54.810Z,48.47
2023-05-10T10:23:54.787Z,48.50
2023-05-10T10:24:54.796Z,48.48
2023-05-10T10:25:54.768Z,48.48
2023-05-10T10:26:54.799Z,48.47
2023-05-10T10:27:54.788Z,48.47
2023-05-10T10:28:54.755Z,48.47
2023-05-10T10:29:54.766Z,48.42
2023-05-10T10:30:55.133Z,48.45
2023-05-10T10:31:54.960Z,48.49
2023-05-10T10:32:54.794Z,48.45
2023-05-10T10:33:54.834Z,48.41
2023-05-10T10:34:54.850Z,48.41
2023-05-10T10:35:55.142Z,48.38
2023-05-10T10:36:54.923Z,48.39
2023-05-10T10:37:54.891Z,48.42
2023-05-10T10:38:54.936Z,48.39
2023-05-10T10:39:54.941Z,48.41
2023-05-10T10:40:55.104Z,48.43
2023-05-10T10:41:54.964Z,48.44
2023-05-10T10:42:54.985Z,48.45
2023-05-10T10:43:55.010Z,48.48
2023-05-10T10:44:55.016Z,48.43
2023-05-10T10:45:55.035Z,48.41
2023-05-10T10:46:55.061Z,48.42
2023-05-10T10:47:55.174Z,48.43
2023-05-10T10:48:55.079Z,48.43
2023-05-10T10:49:55.110Z,48.47
2023-05-10T10:50:55.647Z,48.46
2023-05-10T10:51:55.117Z,48.42
2023-05-10T10:52:55.176Z,48.37
2023-05-10T10:53:55.192Z,48.34
2023-05-10T10:54:55.182Z,48.11
2023-05-10T10:55:55.193Z,48.02
2023-05-10T10:56:55.217Z,47.99
2023-05-10T10:57:55.268Z,47.81
2023-05-10T10:58:55.232Z,47.82
2023-05-10T10:59:55.277Z,47.91
2023-05-10T11:00:55.627Z,48.72
2023-05-10T11:01:55.347Z,48.02
2023-05-10T11:02:55.466Z,48.03
2023-05-10T11:03:55.428Z,48.01
2023-05-10T11:04:55.461Z,47.87
2023-05-10T11:05:55.629Z,48.87
2023-05-10T11:06:56.153Z,49.48
2023-05-10T11:07:55.603Z,48.84
2023-05-10T11:08:55.652Z,49.45
2023-05-10T11:09:55.686Z,49.40
2023-05-10T11:10:56.638Z,48.97
2023-05-10T11:11:55.788Z,48.70
2023-05-10T11:12:55.833Z,48.62
2023-05-10T11:13:55.906Z,48.30
2023-05-10T11:14:55.931Z,47.82
2023-05-10T11:15:56.116Z,47.64
2023-05-10T11:16:55.970Z,47.46
2023-05-10T11:17:55.990Z,47.67
2023-05-10T11:18:56.108Z,47.80
2023-05-10T11:19:55.999Z,47.88
2023-05-10T11:20:56.156Z,47.95
2023-05-10T11:21:56.016Z,48.03
2023-05-10T11:22:56.061Z,48.03
2023-05-10T11:23:56.066Z,48.19
2023-05-10T11:24:56.131Z,48.50
2023-05-10T11:25:56.108Z,48.58
2023-05-10T11:26:56.104Z,48.63
2023-05-10T11:27:56.117Z,48.57
2023-05-10T11:28:56.171Z,48.22
2023-05-10T11:29:56.169Z,48.18
2023-05-10T11:30:56.697Z,48.18
2023-05-10T11:31:56.222Z,48.04
2023-05-10T11:32:56.319Z,48.08
2023-05-10T11:33:56.375Z,48.15
2023-05-10T11:34:56.356Z,48.25
2023-05-10T11:35:56.693Z,48.29
2023-05-10T11:36:56.452Z,48.42
2023-05-10T11:37:56.481Z,48.43
2023-05-10T11:38:56.494Z,48.39
2023-05-10T11:39:56.504Z,48.33
2023-05-10T11:40:56.640Z,48.30
2023-05-10T11:41:56.549Z,48.27
2023-05-10T11:42:56.545Z,48.42
2023-05-10T11:43:56.548Z,48.44
2023-05-10T11:44:56.585Z,48.49
2023-05-10T11:45:56.692Z,48.40
2023-05-10T11:46:56.647Z,48.31
2023-05-10T11:47:56.794Z,48.28
2023-05-10T11:48:56.658Z,48.22
2023-05-10T11:49:56.681Z,48.23
2023-05-10T11:50:57.134Z,48.20
2023-05-10T11:51:56.661Z,48.19
2023-05-10T11:52:56.684Z,48.15
2023-05-10T11:53:56.741Z,48.14
2023-05-10T11:54:56.731Z,48.17
2023-05-10T11:55:56.754Z,48.16
2023-05-10T11:56:56.766Z,48.16
2023-05-10T11:57:56.818Z,48.15
2023-05-10T11:58:56.835Z,48.14
2023-05-10T11:59:56.831Z,48.12
2023-05-10T12:00:57.154Z,48.19
2023-05-10T12:01:56.864Z,48.18
2023-05-10T12:02:56.947Z,48.16
2023-05-10T12:03:57.024Z,48.18
2023-05-10T12:04:57.005Z,48.21
2023-05-10T12:05:56.999Z,48.19
2023-05-10T12:06:57.145Z,48.19
2023-05-10T12:07:57.089Z,48.16
2023-05-10T12:08:57.111Z,48.15
2023-05-10T12:09:57.123Z,48.18
2023-05-10T12:10:57.654Z,48.18
2023-05-10T12:11:57.236Z,48.18
2023-05-10T12:12:57.273Z,48.17
2023-05-10T12:13:57.554Z,48.21
2023-05-10T12:14:57.335Z,48.19
2023-05-10T12:15:57.759Z,48.18
2023-05-10T12:16:57.470Z,48.21
2023-05-10T12:17:57.502Z,48.26
2023-05-10T12:18:57.692Z,48.26
2023-05-10T12:19:57.634Z,48.28
2023-05-10T12:20:57.556Z,48.26
2023-05-10T12:21:57.618Z,48.07
2023-05-10T12:22:59.741Z,48.05
2023-05-10T12:23:57.609Z,48.29
2023-05-10T12:24:57.567Z,48.54
2023-05-10T12:25:57.634Z,48.62
2023-05-10T12:26:57.574Z,48.63
2023-05-10T12:27:57.565Z,48.67
2023-05-10T12:28:57.553Z,48.66
2023-05-10T12:29:57.558Z,48.64
2023-05-10T12:30:57.573Z,48.69
2023-05-10T12:31:57.632Z,48.67
2023-05-10T12:32:57.595Z,48.66
2023-05-10T12:33:57.593Z,48.70
2023-05-10T12:34:57.529Z,48.69
2023-05-10T12:35:57.505Z,48.65
2023-05-10T12:36:57.632Z,48.61
2023-05-10T12:37:57.507Z,48.58
2023-05-10T12:38:57.511Z,48.54
2023-05-10T12:39:57.481Z,48.56
2023-05-10T12:40:57.537Z,48.48
2023-05-10T12:41:57.495Z,48.46
2023-05-10T12:42:57.487Z,48.45
2023-05-10T12:43:57.481Z,48.43
2023-05-10T12:44:57.461Z,48.43
2023-05-10T12:45:57.544Z,48.41
2023-05-10T12:46:57.428Z,48.41
2023-05-10T12:47:57.515Z,48.40
2023-05-10T12:49:07.991Z,48.37
2023-05-10T12:49:58.442Z,48.39
2023-05-10T12:50:57.438Z,48.38
2023-05-10T12:51:57.403Z,48.43
2023-05-10T12:52:57.418Z,48.38